sensor_id;sensor_type;location;lat;lon;timestamp;P1;durP1;ratioP1;P2;durP2;ratioP2
84117;SDS011;74212;51.132;6.950;2023-11-22T00:02:24;3.90;;;2.45;;
84117;SDS011;74212;51.132;6.950;2023-11-22T00:04:53;2.83;;;2.30;;
84117;SDS011;74212;51.132;6.950;2023-11-22T00:07:19;4.07;;;2.30;;
84117;SDS011;74212;51.132;6.950;2023-11-22T00:09:44;3.53;;;2.92;;
84117;SDS011;74212;51.132;6.950;2023-11-22T00:12:11;3.58;;;2.80;;
84117;SDS011;74212;51.132;6.950;2023-11-22T00:14:36;3.22;;;2.40;;
84117;SDS011;74212;51.132;6.950;2023-11-22T00:17:02;3.20;;;2.53;;
84117;SDS011;74212;51.132;6.950;2023-11-22T00:19:27;3.00;;;2.65;;
84117;SDS011;74212;51.132;6.950;2023-11-22T00:21:52;3.10;;;2.33;;
84117;SDS011;74212;51.132;6.950;2023-11-22T00:24:18;3.25;;;2.33;;
84117;SDS011;74212;51.132;6.950;2023-11-22T00:26:43;3.25;;;2.22;;
84117;SDS011;74212;51.132;6.950;2023-11-22T00:29:08;3.95;;;2.97;;
84117;SDS011;74212;51.132;6.950;2023-11-22T00:31:34;2.88;;;2.40;;
84117;SDS011;74212;51.132;6.950;2023-11-22T00:33:59;3.58;;;2.90;;
84117;SDS011;74212;51.132;6.950;2023-11-22T00:36:24;2.90;;;2.40;;
84117;SDS011;74212;51.132;6.950;2023-11-22T00:38:50;3.83;;;2.38;;
84117;SDS011;74212;51.132;6.950;2023-11-22T00:41:15;2.92;;;2.47;;
84117;SDS011;74212;51.132;6.950;2023-11-22T00:43:41;2.83;;;2.35;;
84117;SDS011;74212;51.132;6.950;2023-11-22T00:46:06;2.63;;;2.40;;
84117;SDS011;74212;51.132;6.950;2023-11-22T00:48:31;3.72;;;2.78;;
84117;SDS011;74212;51.132;6.950;2023-11-22T00:50:57;3.00;;;2.25;;
84117;SDS011;74212;51.132;6.950;2023-11-22T00:53:22;2.97;;;2.40;;
84117;SDS011;74212;51.132;6.950;2023-11-22T00:55:48;2.58;;;2.22;;
84117;SDS011;74212;51.132;6.950;2023-11-22T00:58:13;2.78;;;2.47;;
84117;SDS011;74212;51.132;6.950;2023-11-22T01:00:39;2.63;;;2.28;;
84117;SDS011;74212;51.132;6.950;2023-11-22T01:03:04;3.10;;;2.25;;
84117;SDS011;74212;51.132;6.950;2023-11-22T01:05:30;2.45;;;2.25;;
84117;SDS011;74212;51.132;6.950;2023-11-22T01:07:55;2.55;;;2.22;;
84117;SDS011;74212;51.132;6.950;2023-11-22T01:10:20;3.30;;;2.50;;
84117;SDS011;74212;51.132;6.950;2023-11-22T01:12:46;3.05;;;2.38;;
84117;SDS011;74212;51.132;6.950;2023-11-22T01:15:11;2.72;;;2.08;;
84117;SDS011;74212;51.132;6.950;2023-11-22T01:17:37;4.57;;;2.88;;
84117;SDS011;74212;51.132;6.950;2023-11-22T01:20:02;4.43;;;2.60;;
84117;SDS011;74212;51.132;6.950;2023-11-22T01:22:28;3.78;;;2.33;;
84117;SDS011;74212;51.132;6.950;2023-11-22T01:24:53;3.03;;;2.30;;
84117;SDS011;74212;51.132;6.950;2023-11-22T01:27:19;2.60;;;2.08;;
84117;SDS011;74212;51.132;6.950;2023-11-22T01:29:44;2.67;;;2.28;;
84117;SDS011;74212;51.132;6.950;2023-11-22T01:32:10;4.47;;;2.70;;
84117;SDS011;74212;51.132;6.950;2023-11-22T01:34:35;3.75;;;3.20;;
84117;SDS011;74212;51.132;6.950;2023-11-22T01:37:01;3.50;;;2.90;;
84117;SDS011;74212;51.132;6.950;2023-11-22T01:39:28;2.75;;;2.38;;
84117;SDS011;74212;51.132;6.950;2023-11-22T01:41:53;2.33;;;2.13;;
84117;SDS011;74212;51.132;6.950;2023-11-22T01:44:19;2.95;;;2.17;;
84117;SDS011;74212;51.132;6.950;2023-11-22T01:46:44;2.80;;;2.30;;
84117;SDS011;74212;51.132;6.950;2023-11-22T01:49:10;2.72;;;2.13;;
84117;SDS011;74212;51.132;6.950;2023-11-22T01:51:39;2.75;;;2.38;;
84117;SDS011;74212;51.132;6.950;2023-11-22T01:54:05;2.70;;;2.33;;
84117;SDS011;74212;51.132;6.950;2023-11-22T01:56:32;3.75;;;2.40;;
84117;SDS011;74212;51.132;6.950;2023-11-22T01:58:57;3.13;;;2.58;;
84117;SDS011;74212;51.132;6.950;2023-11-22T02:01:24;2.55;;;2.25;;
84117;SDS011;74212;51.132;6.950;2023-11-22T02:03:51;2.72;;;2.10;;
84117;SDS011;74212;51.132;6.950;2023-11-22T02:06:18;2.97;;;2.30;;
84117;SDS011;74212;51.132;6.950;2023-11-22T02:08:44;2.90;;;2.00;;
84117;SDS011;74212;51.132;6.950;2023-11-22T02:11:10;2.67;;;2.17;;
84117;SDS011;74212;51.132;6.950;2023-11-22T02:13:35;3.75;;;2.40;;
84117;SDS011;74212;51.132;6.950;2023-11-22T02:16:01;3.35;;;2.40;;
84117;SDS011;74212;51.132;6.950;2023-11-22T02:18:27;3.05;;;2.33;;
84117;SDS011;74212;51.132;6.950;2023-11-22T02:20:53;2.92;;;2.58;;
84117;SDS011;74212;51.132;6.950;2023-11-22T02:23:18;2.47;;;2.17;;
84117;SDS011;74212;51.132;6.950;2023-11-22T02:25:44;2.75;;;2.30;;
84117;SDS011;74212;51.132;6.950;2023-11-22T02:28:10;3.03;;;2.40;;
84117;SDS011;74212;51.132;6.950;2023-11-22T02:30:36;2.40;;;2.17;;
84117;SDS011;74212;51.132;6.950;2023-11-22T02:33:02;3.05;;;2.75;;
84117;SDS011;74212;51.132;6.950;2023-11-22T02:35:29;2.67;;;2.00;;
84117;SDS011;74212;51.132;6.950;2023-11-22T02:37:56;2.70;;;2.33;;
84117;SDS011;74212;51.132;6.950;2023-11-22T02:40:22;3.10;;;2.13;;
84117;SDS011;74212;51.132;6.950;2023-11-22T02:42:48;3.15;;;2.35;;
84117;SDS011;74212;51.132;6.950;2023-11-22T02:45:14;2.85;;;2.15;;
84117;SDS011;74212;51.132;6.950;2023-11-22T02:47:40;2.63;;;2.22;;
84117;SDS011;74212;51.132;6.950;2023-11-22T02:50:06;2.78;;;2.13;;
84117;SDS011;74212;51.132;6.950;2023-11-22T02:52:31;3.45;;;2.35;;
84117;SDS011;74212;51.132;6.950;2023-11-22T02:54:57;2.70;;;2.10;;
84117;SDS011;74212;51.132;6.950;2023-11-22T02:57:23;3.33;;;2.30;;
84117;SDS011;74212;51.132;6.950;2023-11-22T02:59:49;2.50;;;2.08;;
84117;SDS011;74212;51.132;6.950;2023-11-22T03:02:14;2.80;;;2.45;;
84117;SDS011;74212;51.132;6.950;2023-11-22T03:04:42;2.38;;;2.13;;
84117;SDS011;74212;51.132;6.950;2023-11-22T03:07:07;2.90;;;2.33;;
84117;SDS011;74212;51.132;6.950;2023-11-22T03:09:33;2.90;;;2.42;;
84117;SDS011;74212;51.132;6.950;2023-11-22T03:11:58;2.40;;;2.10;;
84117;SDS011;74212;51.132;6.950;2023-11-22T03:14:24;2.85;;;2.20;;
84117;SDS011;74212;51.132;6.950;2023-11-22T03:16:49;2.95;;;2.00;;
84117;SDS011;74212;51.132;6.950;2023-11-22T03:19:14;2.63;;;1.98;;
84117;SDS011;74212;51.132;6.950;2023-11-22T03:21:40;2.28;;;2.05;;
84117;SDS011;74212;51.132;6.950;2023-11-22T03:24:09;3.90;;;2.20;;
84117;SDS011;74212;51.132;6.950;2023-11-22T03:26:34;3.22;;;2.25;;
84117;SDS011;74212;51.132;6.950;2023-11-22T03:29:00;4.05;;;2.47;;
84117;SDS011;74212;51.132;6.950;2023-11-22T03:31:26;2.65;;;2.10;;
84117;SDS011;74212;51.132;6.950;2023-11-22T03:33:51;2.75;;;2.13;;
84117;SDS011;74212;51.132;6.950;2023-11-22T03:36:17;3.00;;;2.20;;
84117;SDS011;74212;51.132;6.950;2023-11-22T03:38:42;3.65;;;2.65;;
84117;SDS011;74212;51.132;6.950;2023-11-22T03:41:08;2.88;;;2.58;;
84117;SDS011;74212;51.132;6.950;2023-11-22T03:43:33;2.80;;;2.30;;
84117;SDS011;74212;51.132;6.950;2023-11-22T03:45:59;2.53;;;2.33;;
84117;SDS011;74212;51.132;6.950;2023-11-22T03:48:24;2.50;;;2.00;;
84117;SDS011;74212;51.132;6.950;2023-11-22T03:50:51;2.63;;;2.22;;
84117;SDS011;74212;51.132;6.950;2023-11-22T03:53:16;2.78;;;2.42;;
84117;SDS011;74212;51.132;6.950;2023-11-22T03:55:42;2.70;;;2.20;;
84117;SDS011;74212;51.132;6.950;2023-11-22T03:58:07;3.13;;;2.10;;
84117;SDS011;74212;51.132;6.950;2023-11-22T04:00:33;3.03;;;2.25;;
84117;SDS011;74212;51.132;6.950;2023-11-22T04:02:58;2.58;;;2.22;;
84117;SDS011;74212;51.132;6.950;2023-11-22T04:05:26;2.38;;;2.17;;
84117;SDS011;74212;51.132;6.950;2023-11-22T04:07:51;2.47;;;2.15;;
84117;SDS011;74212;51.132;6.950;2023-11-22T04:10:17;2.20;;;2.00;;
84117;SDS011;74212;51.132;6.950;2023-11-22T04:12:44;3.03;;;2.45;;
84117;SDS011;74212;51.132;6.950;2023-11-22T04:15:10;2.88;;;2.42;;
84117;SDS011;74212;51.132;6.950;2023-11-22T04:17:35;3.00;;;2.65;;
84117;SDS011;74212;51.132;6.950;2023-11-22T04:20:03;2.72;;;2.30;;
84117;SDS011;74212;51.132;6.950;2023-11-22T04:22:33;4.63;;;2.40;;
84117;SDS011;74212;51.132;6.950;2023-11-22T04:24:59;2.40;;;2.13;;
84117;SDS011;74212;51.132;6.950;2023-11-22T04:27:24;5.68;;;2.65;;
84117;SDS011;74212;51.132;6.950;2023-11-22T04:29:49;2.58;;;2.05;;
84117;SDS011;74212;51.132;6.950;2023-11-22T04:32:15;5.65;;;2.15;;
84117;SDS011;74212;51.132;6.950;2023-11-22T04:34:40;5.28;;;2.42;;
84117;SDS011;74212;51.132;6.950;2023-11-22T04:37:06;4.07;;;2.10;;
84117;SDS011;74212;51.132;6.950;2023-11-22T04:39:31;3.78;;;2.22;;
84117;SDS011;74212;51.132;6.950;2023-11-22T04:41:57;3.47;;;2.20;;
84117;SDS011;74212;51.132;6.950;2023-11-22T04:44:22;3.47;;;2.38;;
84117;SDS011;74212;51.132;6.950;2023-11-22T04:46:47;3.35;;;2.30;;
84117;SDS011;74212;51.132;6.950;2023-11-22T04:49:13;2.75;;;2.08;;
84117;SDS011;74212;51.132;6.950;2023-11-22T04:51:38;5.68;;;2.45;;
84117;SDS011;74212;51.132;6.950;2023-11-22T04:54:04;3.38;;;2.03;;
84117;SDS011;74212;51.132;6.950;2023-11-22T04:56:29;5.15;;;2.30;;
84117;SDS011;74212;51.132;6.950;2023-11-22T04:58:54;3.35;;;2.35;;
84117;SDS011;74212;51.132;6.950;2023-11-22T05:01:20;3.42;;;2.38;;
84117;SDS011;74212;51.132;6.950;2023-11-22T05:03:45;3.60;;;2.35;;
84117;SDS011;74212;51.132;6.950;2023-11-22T05:06:10;3.97;;;2.30;;
84117;SDS011;74212;51.132;6.950;2023-11-22T05:08:36;2.60;;;2.03;;
84117;SDS011;74212;51.132;6.950;2023-11-22T05:11:01;3.00;;;2.70;;
84117;SDS011;74212;51.132;6.950;2023-11-22T05:13:28;2.33;;;1.92;;
84117;SDS011;74212;51.132;6.950;2023-11-22T05:15:54;2.83;;;2.25;;
84117;SDS011;74212;51.132;6.950;2023-11-22T05:18:20;3.33;;;1.65;;
84117;SDS011;74212;51.132;6.950;2023-11-22T05:20:46;2.70;;;2.10;;
84117;SDS011;74212;51.132;6.950;2023-11-22T05:23:13;2.88;;;1.92;;
84117;SDS011;74212;51.132;6.950;2023-11-22T05:25:38;2.97;;;2.20;;
84117;SDS011;74212;51.132;6.950;2023-11-22T05:28:04;4.45;;;2.15;;
84117;SDS011;74212;51.132;6.950;2023-11-22T05:30:29;3.03;;;2.13;;
84117;SDS011;74212;51.132;6.950;2023-11-22T05:32:55;4.32;;;2.28;;
84117;SDS011;74212;51.132;6.950;2023-11-22T05:35:21;2.47;;;1.65;;
84117;SDS011;74212;51.132;6.950;2023-11-22T05:37:47;2.78;;;1.92;;
84117;SDS011;74212;51.132;6.950;2023-11-22T05:40:12;2.67;;;2.10;;
84117;SDS011;74212;51.132;6.950;2023-11-22T05:42:40;3.95;;;1.95;;
84117;SDS011;74212;51.132;6.950;2023-11-22T05:45:06;2.63;;;1.73;;
84117;SDS011;74212;51.132;6.950;2023-11-22T05:47:32;2.50;;;1.75;;
84117;SDS011;74212;51.132;6.950;2023-11-22T05:49:58;2.20;;;1.85;;
84117;SDS011;74212;51.132;6.950;2023-11-22T05:52:23;2.95;;;2.15;;
84117;SDS011;74212;51.132;6.950;2023-11-22T05:54:49;2.60;;;1.83;;
84117;SDS011;74212;51.132;6.950;2023-11-22T05:57:14;2.25;;;1.73;;
84117;SDS011;74212;51.132;6.950;2023-11-22T05:59:40;2.58;;;1.92;;
84117;SDS011;74212;51.132;6.950;2023-11-22T06:02:05;2.97;;;1.85;;
84117;SDS011;74212;51.132;6.950;2023-11-22T06:04:31;3.65;;;1.92;;
84117;SDS011;74212;51.132;6.950;2023-11-22T06:06:56;3.63;;;1.52;;
84117;SDS011;74212;51.132;6.950;2023-11-22T06:09:22;4.65;;;1.90;;
84117;SDS011;74212;51.132;6.950;2023-11-22T06:11:48;5.55;;;2.25;;
84117;SDS011;74212;51.132;6.950;2023-11-22T06:14:13;2.55;;;1.77;;
84117;SDS011;74212;51.132;6.950;2023-11-22T06:16:39;2.88;;;1.90;;
84117;SDS011;74212;51.132;6.950;2023-11-22T06:19:04;2.72;;;1.80;;
84117;SDS011;74212;51.132;6.950;2023-11-22T06:21:29;6.13;;;2.15;;
84117;SDS011;74212;51.132;6.950;2023-11-22T06:23:55;3.42;;;1.92;;
84117;SDS011;74212;51.132;6.950;2023-11-22T06:26:21;4.68;;;2.20;;
84117;SDS011;74212;51.132;6.950;2023-11-22T06:28:46;7.50;;;1.92;;
84117;SDS011;74212;51.132;6.950;2023-11-22T06:31:14;2.88;;;2.10;;
84117;SDS011;74212;51.132;6.950;2023-11-22T06:33:39;2.70;;;1.60;;
84117;SDS011;74212;51.132;6.950;2023-11-22T06:36:05;3.95;;;2.00;;
84117;SDS011;74212;51.132;6.950;2023-11-22T06:38:30;2.30;;;1.92;;
84117;SDS011;74212;51.132;6.950;2023-11-22T06:40:56;3.20;;;2.05;;
84117;SDS011;74212;51.132;6.950;2023-11-22T06:43:21;2.78;;;2.15;;
84117;SDS011;74212;51.132;6.950;2023-11-22T06:45:47;3.65;;;2.13;;
84117;SDS011;74212;51.132;6.950;2023-11-22T06:48:13;4.07;;;2.10;;
84117;SDS011;74212;51.132;6.950;2023-11-22T06:50:38;3.25;;;2.05;;
84117;SDS011;74212;51.132;6.950;2023-11-22T06:53:04;4.50;;;1.88;;
84117;SDS011;74212;51.132;6.950;2023-11-22T06:55:31;3.38;;;1.77;;
84117;SDS011;74212;51.132;6.950;2023-11-22T06:57:57;4.10;;;1.65;;
84117;SDS011;74212;51.132;6.950;2023-11-22T07:00:23;3.00;;;1.83;;
84117;SDS011;74212;51.132;6.950;2023-11-22T07:02:48;4.38;;;1.60;;
84117;SDS011;74212;51.132;6.950;2023-11-22T07:05:14;5.55;;;2.08;;
84117;SDS011;74212;51.132;6.950;2023-11-22T07:07:39;3.13;;;1.85;;
84117;SDS011;74212;51.132;6.950;2023-11-22T07:10:05;2.78;;;1.98;;
84117;SDS011;74212;51.132;6.950;2023-11-22T07:12:35;2.97;;;1.88;;
84117;SDS011;74212;51.132;6.950;2023-11-22T07:15:01;4.03;;;1.63;;
84117;SDS011;74212;51.132;6.950;2023-11-22T07:17:27;2.92;;;2.00;;
84117;SDS011;74212;51.132;6.950;2023-11-22T07:19:54;3.70;;;1.58;;
84117;SDS011;74212;51.132;6.950;2023-11-22T07:22:19;2.78;;;1.80;;
84117;SDS011;74212;51.132;6.950;2023-11-22T07:24:47;2.17;;;1.65;;
84117;SDS011;74212;51.132;6.950;2023-11-22T07:27:13;2.67;;;1.83;;
84117;SDS011;74212;51.132;6.950;2023-11-22T07:29:42;4.55;;;2.30;;
84117;SDS011;74212;51.132;6.950;2023-11-22T07:32:08;6.05;;;2.13;;
84117;SDS011;74212;51.132;6.950;2023-11-22T07:34:34;4.88;;;1.50;;
84117;SDS011;74212;51.132;6.950;2023-11-22T07:37:00;3.28;;;1.83;;
84117;SDS011;74212;51.132;6.950;2023-11-22T07:39:25;3.22;;;1.88;;
84117;SDS011;74212;51.132;6.950;2023-11-22T07:41:54;2.40;;;2.00;;
84117;SDS011;74212;51.132;6.950;2023-11-22T07:44:20;3.25;;;1.92;;
84117;SDS011;74212;51.132;6.950;2023-11-22T07:46:46;3.90;;;1.92;;
84117;SDS011;74212;51.132;6.950;2023-11-22T07:49:12;3.95;;;2.13;;
84117;SDS011;74212;51.132;6.950;2023-11-22T07:51:38;3.17;;;1.92;;
84117;SDS011;74212;51.132;6.950;2023-11-22T07:54:04;7.28;;;2.08;;
84117;SDS011;74212;51.132;6.950;2023-11-22T07:56:30;3.13;;;2.13;;
84117;SDS011;74212;51.132;6.950;2023-11-22T07:58:57;2.88;;;1.70;;
84117;SDS011;74212;51.132;6.950;2023-11-22T08:01:23;3.33;;;2.00;;
84117;SDS011;74212;51.132;6.950;2023-11-22T08:03:48;3.47;;;1.83;;
84117;SDS011;74212;51.132;6.950;2023-11-22T08:06:16;3.55;;;1.92;;
84117;SDS011;74212;51.132;6.950;2023-11-22T08:08:42;4.35;;;2.28;;
84117;SDS011;74212;51.132;6.950;2023-11-22T08:11:07;3.53;;;1.67;;
84117;SDS011;74212;51.132;6.950;2023-11-22T08:13:40;2.75;;;1.73;;
84117;SDS011;74212;51.132;6.950;2023-11-22T08:16:06;2.85;;;1.88;;
84117;SDS011;74212;51.132;6.950;2023-11-22T08:18:31;2.42;;;1.92;;
84117;SDS011;74212;51.132;6.950;2023-11-22T08:20:56;3.20;;;1.88;;
84117;SDS011;74212;51.132;6.950;2023-11-22T08:23:22;3.42;;;1.88;;
84117;SDS011;74212;51.132;6.950;2023-11-22T08:25:47;3.17;;;1.67;;
84117;SDS011;74212;51.132;6.950;2023-11-22T08:28:12;3.47;;;1.83;;
84117;SDS011;74212;51.132;6.950;2023-11-22T08:30:38;3.35;;;1.90;;
84117;SDS011;74212;51.132;6.950;2023-11-22T08:33:06;3.40;;;2.05;;
84117;SDS011;74212;51.132;6.950;2023-11-22T08:35:31;3.00;;;1.83;;
84117;SDS011;74212;51.132;6.950;2023-11-22T08:37:56;2.78;;;1.73;;
84117;SDS011;74212;51.132;6.950;2023-11-22T08:40:23;2.92;;;1.80;;
84117;SDS011;74212;51.132;6.950;2023-11-22T08:42:49;3.08;;;1.67;;
84117;SDS011;74212;51.132;6.950;2023-11-22T08:45:14;2.65;;;2.00;;
84117;SDS011;74212;51.132;6.950;2023-11-22T08:47:40;3.05;;;1.85;;
84117;SDS011;74212;51.132;6.950;2023-11-22T08:50:09;3.75;;;1.83;;
84117;SDS011;74212;51.132;6.950;2023-11-22T08:52:38;2.33;;;2.00;;
84117;SDS011;74212;51.132;6.950;2023-11-22T08:55:05;2.53;;;1.70;;
84117;SDS011;74212;51.132;6.950;2023-11-22T08:57:32;4.15;;;2.17;;
84117;SDS011;74212;51.132;6.950;2023-11-22T09:00:02;2.90;;;1.73;;
84117;SDS011;74212;51.132;6.950;2023-11-22T09:02:35;2.55;;;1.92;;
84117;SDS011;74212;51.132;6.950;2023-11-22T09:05:01;2.88;;;1.80;;
84117;SDS011;74212;51.132;6.950;2023-11-22T09:07:30;3.08;;;1.73;;
84117;SDS011;74212;51.132;6.950;2023-11-22T09:09:56;2.83;;;1.90;;
84117;SDS011;74212;51.132;6.950;2023-11-22T09:12:23;2.30;;;1.73;;
84117;SDS011;74212;51.132;6.950;2023-11-22T09:14:48;3.47;;;1.63;;
84117;SDS011;74212;51.132;6.950;2023-11-22T09:17:14;2.47;;;1.90;;
84117;SDS011;74212;51.132;6.950;2023-11-22T09:19:39;3.35;;;2.10;;
84117;SDS011;74212;51.132;6.950;2023-11-22T09:22:05;4.00;;;1.83;;
84117;SDS011;74212;51.132;6.950;2023-11-22T09:24:33;4.07;;;1.70;;
84117;SDS011;74212;51.132;6.950;2023-11-22T09:27:00;3.20;;;1.63;;
84117;SDS011;74212;51.132;6.950;2023-11-22T09:29:30;2.20;;;1.65;;
84117;SDS011;74212;51.132;6.950;2023-11-22T09:31:57;3.03;;;1.95;;
84117;SDS011;74212;51.132;6.950;2023-11-22T09:34:25;3.00;;;1.90;;
84117;SDS011;74212;51.132;6.950;2023-11-22T09:36:51;4.10;;;1.75;;
84117;SDS011;74212;51.132;6.950;2023-11-22T09:39:16;2.17;;;1.73;;
84117;SDS011;74212;51.132;6.950;2023-11-22T09:44:11;2.47;;;1.60;;
84117;SDS011;74212;51.132;6.950;2023-11-22T09:46:37;3.47;;;1.80;;
84117;SDS011;74212;51.132;6.950;2023-11-22T09:49:05;2.72;;;2.00;;
84117;SDS011;74212;51.132;6.950;2023-11-22T09:51:32;3.42;;;2.03;;
84117;SDS011;74212;51.132;6.950;2023-11-22T09:54:00;3.03;;;1.80;;
84117;SDS011;74212;51.132;6.950;2023-11-22T09:56:32;2.55;;;1.90;;
84117;SDS011;74212;51.132;6.950;2023-11-22T09:58:59;3.22;;;2.15;;
84117;SDS011;74212;51.132;6.950;2023-11-22T10:01:25;2.50;;;1.55;;
84117;SDS011;74212;51.132;6.950;2023-11-22T10:03:53;3.13;;;1.63;;
84117;SDS011;74212;51.132;6.950;2023-11-22T10:06:19;3.65;;;2.00;;
84117;SDS011;74212;51.132;6.950;2023-11-22T10:08:45;2.67;;;1.70;;
84117;SDS011;74212;51.132;6.950;2023-11-22T10:11:14;2.33;;;1.52;;
84117;SDS011;74212;51.132;6.950;2023-11-22T10:13:43;2.50;;;1.88;;
84117;SDS011;74212;51.132;6.950;2023-11-22T10:16:11;3.67;;;1.83;;
84117;SDS011;74212;51.132;6.950;2023-11-22T10:18:41;2.78;;;1.77;;
84117;SDS011;74212;51.132;6.950;2023-11-22T10:23:49;2.60;;;1.80;;
84117;SDS011;74212;51.132;6.950;2023-11-22T10:26:25;2.42;;;1.73;;
84117;SDS011;74212;51.132;6.950;2023-11-22T10:28:52;1.83;;;1.52;;
84117;SDS011;74212;51.132;6.950;2023-11-22T10:31:18;2.25;;;1.83;;
84117;SDS011;74212;51.132;6.950;2023-11-22T10:33:46;2.05;;;1.45;;
84117;SDS011;74212;51.132;6.950;2023-11-22T10:36:12;2.22;;;1.63;;
84117;SDS011;74212;51.132;6.950;2023-11-22T10:38:38;2.25;;;1.52;;
84117;SDS011;74212;51.132;6.950;2023-11-22T10:41:07;4.10;;;1.88;;
84117;SDS011;74212;51.132;6.950;2023-11-22T10:43:34;3.60;;;1.55;;
84117;SDS011;74212;51.132;6.950;2023-11-22T10:46:01;2.38;;;1.35;;
84117;SDS011;74212;51.132;6.950;2023-11-22T10:48:27;2.35;;;1.77;;
84117;SDS011;74212;51.132;6.950;2023-11-22T10:50:54;2.80;;;1.83;;
84117;SDS011;74212;51.132;6.950;2023-11-22T10:53:22;5.30;;;1.98;;
84117;SDS011;74212;51.132;6.950;2023-11-22T10:55:59;2.78;;;1.98;;
84117;SDS011;74212;51.132;6.950;2023-11-22T10:58:28;2.40;;;1.60;;
84117;SDS011;74212;51.132;6.950;2023-11-22T11:00:57;3.63;;;1.67;;
84117;SDS011;74212;51.132;6.950;2023-11-22T11:03:23;2.45;;;1.48;;
84117;SDS011;74212;51.132;6.950;2023-11-22T11:05:54;3.20;;;1.58;;
84117;SDS011;74212;51.132;6.950;2023-11-22T11:08:27;3.30;;;1.42;;
84117;SDS011;74212;51.132;6.950;2023-11-22T11:13:21;2.25;;;1.60;;
84117;SDS011;74212;51.132;6.950;2023-11-22T11:15:46;2.55;;;2.03;;
84117;SDS011;74212;51.132;6.950;2023-11-22T11:18:15;3.03;;;1.60;;
84117;SDS011;74212;51.132;6.950;2023-11-22T11:20:51;2.17;;;1.65;;
84117;SDS011;74212;51.132;6.950;2023-11-22T11:23:36;4.25;;;1.90;;
84117;SDS011;74212;51.132;6.950;2023-11-22T11:26:17;7.18;;;1.70;;
84117;SDS011;74212;51.132;6.950;2023-11-22T11:28:46;2.78;;;1.90;;
84117;SDS011;74212;51.132;6.950;2023-11-22T11:31:13;2.47;;;1.70;;
84117;SDS011;74212;51.132;6.950;2023-11-22T11:38:51;2.20;;;1.50;;
84117;SDS011;74212;51.132;6.950;2023-11-22T11:41:24;2.20;;;1.52;;
84117;SDS011;74212;51.132;6.950;2023-11-22T11:43:51;2.35;;;1.52;;
84117;SDS011;74212;51.132;6.950;2023-11-22T11:46:17;2.03;;;1.52;;
84117;SDS011;74212;51.132;6.950;2023-11-22T11:48:43;3.05;;;1.70;;
84117;SDS011;74212;51.132;6.950;2023-11-22T11:51:09;3.42;;;1.85;;
84117;SDS011;74212;51.132;6.950;2023-11-22T11:53:38;4.03;;;1.70;;
84117;SDS011;74212;51.132;6.950;2023-11-22T11:56:04;2.22;;;1.50;;
84117;SDS011;74212;51.132;6.950;2023-11-22T11:58:30;2.00;;;1.50;;
84117;SDS011;74212;51.132;6.950;2023-11-22T12:00:55;2.20;;;1.40;;
84117;SDS011;74212;51.132;6.950;2023-11-22T12:03:21;2.30;;;1.40;;
84117;SDS011;74212;51.132;6.950;2023-11-22T12:05:47;2.00;;;1.58;;
84117;SDS011;74212;51.132;6.950;2023-11-22T12:08:14;2.53;;;1.50;;
84117;SDS011;74212;51.132;6.950;2023-11-22T12:13:13;2.03;;;1.63;;
84117;SDS011;74212;51.132;6.950;2023-11-22T12:15:38;2.10;;;1.55;;
84117;SDS011;74212;51.132;6.950;2023-11-22T12:18:05;3.42;;;1.73;;
84117;SDS011;74212;51.132;6.950;2023-11-22T12:20:30;2.22;;;1.30;;
84117;SDS011;74212;51.132;6.950;2023-11-22T12:22:58;1.80;;;1.30;;
84117;SDS011;74212;51.132;6.950;2023-11-22T12:25:27;1.80;;;1.40;;
84117;SDS011;74212;51.132;6.950;2023-11-22T12:27:56;3.15;;;1.58;;
84117;SDS011;74212;51.132;6.950;2023-11-22T12:30:31;1.60;;;1.23;;
84117;SDS011;74212;51.132;6.950;2023-11-22T12:33:04;2.85;;;1.60;;
84117;SDS011;74212;51.132;6.950;2023-11-22T12:35:30;2.47;;;1.60;;
84117;SDS011;74212;51.132;6.950;2023-11-22T12:37:58;1.92;;;1.60;;
84117;SDS011;74212;51.132;6.950;2023-11-22T12:40:26;4.00;;;1.55;;
84117;SDS011;74212;51.132;6.950;2023-11-22T12:42:52;2.67;;;1.63;;
84117;SDS011;74212;51.132;6.950;2023-11-22T12:45:19;1.92;;;1.42;;
84117;SDS011;74212;51.132;6.950;2023-11-22T12:47:45;2.55;;;1.50;;
84117;SDS011;74212;51.132;6.950;2023-11-22T12:52:56;2.22;;;1.70;;
84117;SDS011;74212;51.132;6.950;2023-11-22T12:55:23;2.40;;;1.50;;
84117;SDS011;74212;51.132;6.950;2023-11-22T12:58:00;1.70;;;1.27;;
84117;SDS011;74212;51.132;6.950;2023-11-22T13:00:28;1.58;;;1.35;;
84117;SDS011;74212;51.132;6.950;2023-11-22T13:02:55;2.22;;;1.52;;
84117;SDS011;74212;51.132;6.950;2023-11-22T13:05:22;2.50;;;1.50;;
84117;SDS011;74212;51.132;6.950;2023-11-22T13:07:48;1.80;;;1.27;;
84117;SDS011;74212;51.132;6.950;2023-11-22T13:10:14;2.00;;;1.58;;
84117;SDS011;74212;51.132;6.950;2023-11-22T13:12:41;3.88;;;1.70;;
84117;SDS011;74212;51.132;6.950;2023-11-22T13:15:09;2.22;;;1.52;;
84117;SDS011;74212;51.132;6.950;2023-11-22T13:17:36;3.17;;;1.38;;
84117;SDS011;74212;51.132;6.950;2023-11-22T13:20:02;3.03;;;1.80;;
84117;SDS011;74212;51.132;6.950;2023-11-22T13:22:30;3.05;;;1.60;;
84117;SDS011;74212;51.132;6.950;2023-11-22T13:24:56;3.35;;;1.70;;
84117;SDS011;74212;51.132;6.950;2023-11-22T13:27:24;2.92;;;1.90;;
84117;SDS011;74212;51.132;6.950;2023-11-22T13:29:50;1.90;;;1.38;;
84117;SDS011;74212;51.132;6.950;2023-11-22T13:32:18;1.83;;;1.20;;
84117;SDS011;74212;51.132;6.950;2023-11-22T13:34:43;2.60;;;1.58;;
84117;SDS011;74212;51.132;6.950;2023-11-22T13:37:08;2.85;;;1.48;;
84117;SDS011;74212;51.132;6.950;2023-11-22T13:39:34;3.15;;;1.50;;
84117;SDS011;74212;51.132;6.950;2023-11-22T13:41:59;5.07;;;1.67;;
84117;SDS011;74212;51.132;6.950;2023-11-22T13:44:25;2.05;;;1.23;;
84117;SDS011;74212;51.132;6.950;2023-11-22T13:46:50;2.75;;;1.40;;
84117;SDS011;74212;51.132;6.950;2023-11-22T13:49:15;4.18;;;1.33;;
84117;SDS011;74212;51.132;6.950;2023-11-22T13:51:41;2.67;;;1.45;;
84117;SDS011;74212;51.132;6.950;2023-11-22T13:54:07;2.58;;;1.42;;
84117;SDS011;74212;51.132;6.950;2023-11-22T13:56:32;2.95;;;1.40;;
84117;SDS011;74212;51.132;6.950;2023-11-22T13:58:58;3.95;;;1.30;;
84117;SDS011;74212;51.132;6.950;2023-11-22T14:01:24;4.53;;;1.38;;
84117;SDS011;74212;51.132;6.950;2023-11-22T14:03:51;2.75;;;1.35;;
84117;SDS011;74212;51.132;6.950;2023-11-22T14:06:17;1.70;;;1.30;;
84117;SDS011;74212;51.132;6.950;2023-11-22T14:08:42;1.90;;;1.38;;
84117;SDS011;74212;51.132;6.950;2023-11-22T14:11:08;4.15;;;1.83;;
84117;SDS011;74212;51.132;6.950;2023-11-22T14:13:34;1.55;;;0.98;;
84117;SDS011;74212;51.132;6.950;2023-11-22T14:15:59;2.60;;;1.20;;
84117;SDS011;74212;51.132;6.950;2023-11-22T14:18:26;2.97;;;1.35;;
84117;SDS011;74212;51.132;6.950;2023-11-22T14:20:51;2.28;;;1.30;;
84117;SDS011;74212;51.132;6.950;2023-11-22T14:23:17;1.70;;;1.13;;
84117;SDS011;74212;51.132;6.950;2023-11-22T14:25:42;2.85;;;1.35;;
84117;SDS011;74212;51.132;6.950;2023-11-22T14:28:07;4.88;;;1.38;;
84117;SDS011;74212;51.132;6.950;2023-11-22T14:30:33;4.55;;;1.40;;
84117;SDS011;74212;51.132;6.950;2023-11-22T14:33:01;4.32;;;1.50;;
84117;SDS011;74212;51.132;6.950;2023-11-22T14:35:31;2.00;;;1.33;;
84117;SDS011;74212;51.132;6.950;2023-11-22T14:37:57;3.33;;;1.60;;
84117;SDS011;74212;51.132;6.950;2023-11-22T14:40:23;1.77;;;1.67;;
84117;SDS011;74212;51.132;6.950;2023-11-22T14:42:55;3.03;;;1.30;;
84117;SDS011;74212;51.132;6.950;2023-11-22T14:45:21;1.88;;;1.15;;
84117;SDS011;74212;51.132;6.950;2023-11-22T14:47:47;3.00;;;1.17;;
84117;SDS011;74212;51.132;6.950;2023-11-22T14:50:12;1.45;;;1.05;;
84117;SDS011;74212;51.132;6.950;2023-11-22T14:52:40;2.85;;;1.40;;
84117;SDS011;74212;51.132;6.950;2023-11-22T14:55:06;1.90;;;1.42;;
84117;SDS011;74212;51.132;6.950;2023-11-22T14:57:32;2.40;;;1.08;;
84117;SDS011;74212;51.132;6.950;2023-11-22T14:59:57;1.30;;;0.95;;
84117;SDS011;74212;51.132;6.950;2023-11-22T15:02:23;2.38;;;1.38;;